Sao Vicente Ferrer, Brazil
Current Conditions -  °F | °C
As of 4:00 PM on Friday 21 Nov 2014 (Local Time) from SBKG Reporting Station
Scattered Clouds Scattered Clouds  
Wind Chill: 82°   Ceiling: Unl
Heat Index: 83°   Visibility: 6mi
Dew Point: 63°   Wind: 18mph
Humidity: 51%   Direction: 100°E
Pressure: 29.91"   Gusts: NA
Location:  7.59°S, 35.49°W
Report Text: SBKG 211900Z 10016KT 9999 SCT049 28/17 Q1013
Loading
Personal Weather Stations






























Interactive Weather Map New forecast layout! Learn more

10-Day Weather Forecast

Advertisements
Track Severe Weather on mobile